sensor_id;sensor_type;location;lat;lon;timestamp;pressure;altitude;pressure_sealevel;temperature;humidity
77517;BME280;68414;53.946;27.634;2024-01-10T00:00:48;99758.093750;;;-0.220000;77.000977
77517;BME280;68414;53.946;27.634;2024-01-10T00:01:48;99751.789062;;;-0.210000;76.788086
77517;BME280;68414;53.946;27.634;2024-01-10T00:02:48;99754.187500;;;-0.130000;76.499023
77517;BME280;68414;53.946;27.634;2024-01-10T00:03:48;99754.609375;;;-0.160000;75.208008
77517;BME280;68414;53.946;27.634;2024-01-10T00:04:48;99760.281250;;;-0.130000;76.650391
77517;BME280;68414;53.946;27.634;2024-01-10T00:05:48;99752.140625;;;-0.110000;76.288086
77517;BME280;68414;53.946;27.634;2024-01-10T00:06:48;99754.953125;;;-0.060000;76.080078
77517;BME280;68414;53.946;27.634;2024-01-10T00:07:48;99756.406250;;;-0.100000;75.369141
77517;BME280;68414;53.946;27.634;2024-01-10T00:08:49;99759.218750;;;-0.050000;75.875977
77517;BME280;68414;53.946;27.634;2024-01-10T00:09:48;99763.906250;;;-0.070000;75.429688
77517;BME280;68414;53.946;27.634;2024-01-10T00:10:48;99763.375000;;;-0.220000;75.867188
77517;BME280;68414;53.946;27.634;2024-01-10T00:11:48;99760.312500;;;-0.190000;76.175781
77517;BME280;68414;53.946;27.634;2024-01-10T00:12:48;99758.265625;;;-0.170000;76.146484
77517;BME280;68414;53.946;27.634;2024-01-10T00:13:48;99765.171875;;;-0.160000;76.483398
77517;BME280;68414;53.946;27.634;2024-01-10T00:14:48;99755.804688;;;-0.120000;75.970703
77517;BME280;68414;53.946;27.634;2024-01-10T00:15:48;99756.578125;;;-0.050000;76.416016
77517;BME280;68414;53.946;27.634;2024-01-10T00:16:48;99765.101562;;;-0.030000;76.203125
77517;BME280;68414;53.946;27.634;2024-01-10T00:17:48;99760.664062;;;-0.090000;76.291016
77517;BME280;68414;53.946;27.634;2024-01-10T00:18:48;99764.328125;;;-0.100000;76.265625
77517;BME280;68414;53.946;27.634;2024-01-10T00:19:48;99764.718750;;;-0.070000;76.306641
77517;BME280;68414;53.946;27.634;2024-01-10T00:20:48;99766.125000;;;-0.040000;76.180664
77517;BME280;68414;53.946;27.634;2024-01-10T00:21:48;99772.000000;;;-0.020000;76.075195
77517;BME280;68414;53.946;27.634;2024-01-10T00:22:48;99766.718750;;;-0.020000;76.010742
77517;BME280;68414;53.946;27.634;2024-01-10T00:23:48;99774.046875;;;-0.040000;76.234375
77517;BME280;68414;53.946;27.634;2024-01-10T00:24:48;99765.695312;;;-0.010000;76.414062
77517;BME280;68414;53.946;27.634;2024-01-10T00:25:48;99776.406250;;;0.040000;76.389648
77517;BME280;68414;53.946;27.634;2024-01-10T00:26:48;99769.890625;;;0.070000;76.210938
77517;BME280;68414;53.946;27.634;2024-01-10T00:27:48;99768.234375;;;0.120000;75.917969
77517;BME280;68414;53.946;27.634;2024-01-10T00:28:48;99769.679688;;;0.080000;75.889648
77517;BME280;68414;53.946;27.634;2024-01-10T00:29:48;99763.093750;;;-0.080000;76.195312
77517;BME280;68414;53.946;27.634;2024-01-10T00:30:48;99771.890625;;;-0.200000;76.583008
77517;BME280;68414;53.946;27.634;2024-01-10T00:31:48;99765.023438;;;-0.280000;77.304688
77517;BME280;68414;53.946;27.634;2024-01-10T00:32:48;99765.414062;;;-0.240000;77.559570
77517;BME280;68414;53.946;27.634;2024-01-10T00:33:48;99767.632812;;;-0.210000;77.533203
77517;BME280;68414;53.946;27.634;2024-01-10T00:34:48;99770.484375;;;-0.230000;77.539062
77517;BME280;68414;53.946;27.634;2024-01-10T00:35:48;99764.000000;;;-0.270000;77.770508
77517;BME280;68414;53.946;27.634;2024-01-10T00:36:48;99764.390625;;;-0.230000;78.165039
77517;BME280;68414;53.946;27.634;2024-01-10T00:37:48;99764.179688;;;-0.220000;77.402344
77517;BME280;68414;53.946;27.634;2024-01-10T00:38:48;99767.390625;;;-0.130000;77.903320
77517;BME280;68414;53.946;27.634;2024-01-10T00:39:48;99760.031250;;;-0.050000;77.412109
77517;BME280;68414;53.946;27.634;2024-01-10T00:40:48;99758.625000;;;-0.070000;77.125977
77517;BME280;68414;53.946;27.634;2024-01-10T00:41:48;99762.250000;;;-0.020000;77.071289
77517;BME280;68414;53.946;27.634;2024-01-10T00:42:48;99763.054688;;;-0.010000;77.246094
77517;BME280;68414;53.946;27.634;2024-01-10T00:43:48;99760.843750;;;-0.040000;76.882812
77517;BME280;68414;53.946;27.634;2024-01-10T00:44:48;99757.000000;;;-0.080000;76.790039
77517;BME280;68414;53.946;27.634;2024-01-10T00:45:48;99771.226562;;;-0.090000;77.328125
77517;BME280;68414;53.946;27.634;2024-01-10T00:46:48;99767.390625;;;-0.130000;77.536133
77517;BME280;68414;53.946;27.634;2024-01-10T00:47:48;99761.468750;;;-0.090000;77.783203
77517;BME280;68414;53.946;27.634;2024-01-10T00:48:48;99766.859375;;;0.030000;77.597656
77517;BME280;68414;53.946;27.634;2024-01-10T00:49:48;99756.640625;;;0.130000;77.249023
77517;BME280;68414;53.946;27.634;2024-01-10T00:50:48;99752.765625;;;0.160000;76.767578
77517;BME280;68414;53.946;27.634;2024-01-10T00:51:48;99759.281250;;;0.130000;76.762695
77517;BME280;68414;53.946;27.634;2024-01-10T00:52:48;99748.921875;;;0.120000;76.609375
77517;BME280;68414;53.946;27.634;2024-01-10T00:53:48;99754.109375;;;0.000000;76.966797
77517;BME280;68414;53.946;27.634;2024-01-10T00:54:48;99762.773438;;;0.070000;77.334961
77517;BME280;68414;53.946;27.634;2024-01-10T00:55:48;99760.906250;;;0.140000;77.044922
77517;BME280;68414;53.946;27.634;2024-01-10T00:56:48;99760.437500;;;0.240000;76.684570
77517;BME280;68414;53.946;27.634;2024-01-10T00:57:48;99757.796875;;;0.240000;76.381836
77517;BME280;68414;53.946;27.634;2024-01-10T00:58:48;99762.859375;;;0.250000;76.677734
77517;BME280;68414;53.946;27.634;2024-01-10T00:59:48;99764.484375;;;0.260000;76.452148
77517;BME280;68414;53.946;27.634;2024-01-10T01:00:48;99765.671875;;;0.300000;76.728516
77517;BME280;68414;53.946;27.634;2024-01-10T01:01:48;99757.578125;;;0.250000;76.699219
77517;BME280;68414;53.946;27.634;2024-01-10T01:02:48;99757.578125;;;0.250000;76.893555
77517;BME280;68414;53.946;27.634;2024-01-10T01:03:48;99756.382812;;;0.210000;76.755859
77517;BME280;68414;53.946;27.634;2024-01-10T01:04:48;99753.906250;;;0.260000;76.949219
77517;BME280;68414;53.946;27.634;2024-01-10T01:05:48;99751.140625;;;0.150000;76.279297
77517;BME280;68414;53.946;27.634;2024-01-10T01:06:48;99746.070312;;;0.130000;77.206055
77517;BME280;68414;53.946;27.634;2024-01-10T01:07:48;99756.640625;;;0.130000;77.432617
77517;BME280;68414;53.946;27.634;2024-01-10T01:08:48;99748.968750;;;0.050000;77.190430
77517;BME280;68414;53.946;27.634;2024-01-10T01:09:50;99747.632812;;;-0.040000;77.325195
77517;BME280;68414;53.946;27.634;2024-01-10T01:10:48;99745.835938;;;-0.100000;77.681641
77517;BME280;68414;53.946;27.634;2024-01-10T01:11:48;99748.054688;;;-0.070000;77.752930
77517;BME280;68414;53.946;27.634;2024-01-10T01:12:48;99750.414062;;;0.010000;78.416016
77517;BME280;68414;53.946;27.634;2024-01-10T01:13:48;99750.765625;;;0.110000;78.055664
77517;BME280;68414;53.946;27.634;2024-01-10T01:14:48;99745.640625;;;0.160000;77.892578
77517;BME280;68414;53.946;27.634;2024-01-10T01:15:48;99753.570312;;;0.160000;77.968750
77517;BME280;68414;53.946;27.634;2024-01-10T01:16:48;99750.078125;;;0.220000;77.492188
77517;BME280;68414;53.946;27.634;2024-01-10T01:17:48;99754.500000;;;0.280000;77.503906
77517;BME280;68414;53.946;27.634;2024-01-10T01:18:48;99752.593750;;;0.360000;77.008789
77517;BME280;68414;53.946;27.634;2024-01-10T01:19:48;99755.406250;;;0.410000;76.898438
77517;BME280;68414;53.946;27.634;2024-01-10T01:20:48;99748.062500;;;0.430000;76.685547
77517;BME280;68414;53.946;27.634;2024-01-10T01:21:48;99753.781250;;;0.400000;76.842773
77517;BME280;68414;53.946;27.634;2024-01-10T01:22:48;99758.210938;;;0.460000;77.048828
77517;BME280;68414;53.946;27.634;2024-01-10T01:23:48;99752.453125;;;0.300000;76.717773
77517;BME280;68414;53.946;27.634;2024-01-10T01:24:48;99751.007812;;;0.350000;77.059570
77517;BME280;68414;53.946;27.634;2024-01-10T01:25:48;99750.921875;;;0.410000;77.061523
77517;BME280;68414;53.946;27.634;2024-01-10T01:26:48;99745.585938;;;0.480000;76.987305
77517;BME280;68414;53.946;27.634;2024-01-10T01:27:48;99743.531250;;;0.500000;76.687500
77517;BME280;68414;53.946;27.634;2024-01-10T01:28:48;99746.875000;;;0.390000;76.505859
77517;BME280;68414;53.946;27.634;2024-01-10T01:29:48;99750.109375;;;0.410000;77.114258
77517;BME280;68414;53.946;27.634;2024-01-10T01:30:48;99747.640625;;;0.460000;76.885742
77517;BME280;68414;53.946;27.634;2024-01-10T01:31:49;99736.203125;;;0.520000;76.831055
77517;BME280;68414;53.946;27.634;2024-01-10T01:32:48;99740.515625;;;0.460000;76.823242
77517;BME280;68414;53.946;27.634;2024-01-10T01:33:48;99748.875000;;;0.430000;76.307617
77517;BME280;68414;53.946;27.634;2024-01-10T01:34:48;99739.328125;;;0.420000;76.543945
77517;BME280;68414;53.946;27.634;2024-01-10T01:35:48;99740.562500;;;0.400000;76.896484
77517;BME280;68414;53.946;27.634;2024-01-10T01:36:48;99737.546875;;;0.360000;77.172852
77517;BME280;68414;53.946;27.634;2024-01-10T01:37:48;99735.281250;;;0.400000;77.307617
77517;BME280;68414;53.946;27.634;2024-01-10T01:38:48;99730.531250;;;0.480000;77.139648
77517;BME280;68414;53.946;27.634;2024-01-10T01:39:48;99734.148438;;;0.540000;76.912109
77517;BME280;68414;53.946;27.634;2024-01-10T01:40:48;99733.281250;;;0.600000;76.250977
77517;BME280;68414;53.946;27.634;2024-01-10T01:41:48;99741.859375;;;0.550000;76.177734
77517;BME280;68414;53.946;27.634;2024-01-10T01:42:48;99739.867188;;;0.510000;76.571289
77517;BME280;68414;53.946;27.634;2024-01-10T01:43:48;99743.531250;;;0.500000;76.730469
77517;BME280;68414;53.946;27.634;2024-01-10T01:44:48;99740.351562;;;0.410000;76.402344
77517;BME280;68414;53.946;27.634;2024-01-10T01:45:50;99743.531250;;;0.500000;77.455078
77517;BME280;68414;53.946;27.634;2024-01-10T01:46:48;99743.210938;;;0.400000;76.960938
77517;BME280;68414;53.946;27.634;2024-01-10T01:47:48;99749.093750;;;0.420000;77.116211
77517;BME280;68414;53.946;27.634;2024-01-10T01:48:48;99747.257812;;;0.420000;76.739258
77517;BME280;68414;53.946;27.634;2024-01-10T01:49:48;99741.210938;;;0.350000;77.202148
77517;BME280;68414;53.946;27.634;2024-01-10T01:51:48;99739.242188;;;0.300000;77.355469
77517;BME280;68414;53.946;27.634;2024-01-10T01:52:48;99738.437500;;;0.300000;77.591797
77517;BME280;68414;53.946;27.634;2024-01-10T01:53:48;99735.140625;;;0.350000;77.740234
77517;BME280;68414;53.946;27.634;2024-01-10T01:54:48;99736.093750;;;0.400000;77.320312
77517;BME280;68414;53.946;27.634;2024-01-10T01:55:48;99732.796875;;;0.450000;77.662109
77517;BME280;68414;53.946;27.634;2024-01-10T01:56:48;99726.859375;;;0.490000;76.730469
77517;BME280;68414;53.946;27.634;2024-01-10T01:57:48;99726.484375;;;0.460000;77.362305
77517;BME280;68414;53.946;27.634;2024-01-10T01:58:49;99733.390625;;;0.470000;77.503906
77517;BME280;68414;53.946;27.634;2024-01-10T01:59:48;99725.296875;;;0.420000;77.624023
77517;BME280;68414;53.946;27.634;2024-01-10T02:00:48;99719.578125;;;0.450000;77.726562
77517;BME280;68414;53.946;27.634;2024-01-10T02:01:48;99725.296875;;;0.420000;77.137695
77517;BME280;68414;53.946;27.634;2024-01-10T02:02:48;99718.828125;;;0.380000;76.871094
77517;BME280;68414;53.946;27.634;2024-01-10T02:03:48;99724.703125;;;0.400000;77.588867
77517;BME280;68414;53.946;27.634;2024-01-10T02:04:48;99720.445312;;;0.390000;77.868164
77517;BME280;68414;53.946;27.634;2024-01-10T02:05:48;99719.851562;;;0.370000;77.821289
77517;BME280;68414;53.946;27.634;2024-01-10T02:06:51;99721.335938;;;0.320000;77.640625
77517;BME280;68414;53.946;27.634;2024-01-10T02:07:48;99715.531250;;;0.420000;78.069336
77517;BME280;68414;53.946;27.634;2024-01-10T02:08:48;99723.843750;;;0.460000;77.805664
77517;BME280;68414;53.946;27.634;2024-01-10T02:09:48;99723.570312;;;0.540000;77.875000
77517;BME280;68414;53.946;27.634;2024-01-10T02:10:49;99715.531250;;;0.420000;77.420898
77517;BME280;68414;53.946;27.634;2024-01-10T02:11:48;99716.343750;;;0.430000;77.734375
77517;BME280;68414;53.946;27.634;2024-01-10T02:12:48;99717.289062;;;0.300000;78.489258
77517;BME280;68414;53.946;27.634;2024-01-10T02:13:48;99723.484375;;;0.170000;79.221680
77517;BME280;68414;53.946;27.634;2024-01-10T02:14:48;99722.406250;;;0.250000;79.021484
77517;BME280;68414;53.946;27.634;2024-01-10T02:15:48;99715.296875;;;0.250000;78.384766
77517;BME280;68414;53.946;27.634;2024-01-10T02:16:48;99715.765625;;;0.160000;78.993164
77517;BME280;68414;53.946;27.634;2024-01-10T02:17:48;99709.460938;;;0.170000;79.956055
77517;BME280;68414;53.946;27.634;2024-01-10T02:18:48;99715.390625;;;0.120000;80.023438
77517;BME280;68414;53.946;27.634;2024-01-10T02:19:48;99713.296875;;;0.210000;79.954102
77517;BME280;68414;53.946;27.634;2024-01-10T02:20:49;99716.203125;;;0.130000;79.453125
77517;BME280;68414;53.946;27.634;2024-01-10T02:21:48;99704.609375;;;0.140000;79.670898
77517;BME280;68414;53.946;27.634;2024-01-10T02:22:48;99702.562500;;;0.160000;79.868164
77517;BME280;68414;53.946;27.634;2024-01-10T02:23:48;99703.101562;;;0.240000;79.700195
77517;BME280;68414;53.946;27.634;2024-01-10T02:24:52;99699.007812;;;0.280000;78.822266
77517;BME280;68414;53.946;27.634;2024-01-10T02:25:48;99697.546875;;;0.320000;78.905273
77517;BME280;68414;53.946;27.634;2024-01-10T02:26:48;99695.414062;;;0.410000;79.148438
77517;BME280;68414;53.946;27.634;2024-01-10T02:27:48;99696.812500;;;0.440000;78.862305
77517;BME280;68414;53.946;27.634;2024-01-10T02:28:48;99690.875000;;;0.480000;78.913086
77517;BME280;68414;53.946;27.634;2024-01-10T02:29:48;99683.812500;;;0.420000;78.912109
77517;BME280;68414;53.946;27.634;2024-01-10T02:30:49;99680.148438;;;0.430000;78.794922
77517;BME280;68414;53.946;27.634;2024-01-10T02:31:48;99686.992188;;;0.510000;78.983398
77517;BME280;68414;53.946;27.634;2024-01-10T02:32:48;99679.218750;;;0.560000;78.851562
77517;BME280;68414;53.946;27.634;2024-01-10T02:33:48;99679.218750;;;0.560000;78.753906
77517;BME280;68414;53.946;27.634;2024-01-10T02:34:48;99679.000000;;;0.570000;78.378906
77517;BME280;68414;53.946;27.634;2024-01-10T02:35:48;99680.984375;;;0.620000;78.364258
77517;BME280;68414;53.946;27.634;2024-01-10T02:36:48;99671.937500;;;0.510000;77.880859
77517;BME280;68414;53.946;27.634;2024-01-10T02:37:48;99676.734375;;;0.610000;78.763672
77517;BME280;68414;53.946;27.634;2024-01-10T02:38:48;99676.882812;;;0.660000;78.653320
77517;BME280;68414;53.946;27.634;2024-01-10T02:39:50;99679.593750;;;0.590000;77.895508
77517;BME280;68414;53.946;27.634;2024-01-10T02:40:48;99676.359375;;;0.570000;78.952148
77517;BME280;68414;53.946;27.634;2024-01-10T02:41:48;99679.218750;;;0.560000;78.981445
77517;BME280;68414;53.946;27.634;2024-01-10T02:42:48;99673.343750;;;0.540000;79.085938
77517;BME280;68414;53.946;27.634;2024-01-10T02:43:48;99668.859375;;;0.540000;79.128906
77517;BME280;68414;53.946;27.634;2024-01-10T02:44:48;99669.453125;;;0.560000;78.636719
77517;BME280;68414;53.946;27.634;2024-01-10T02:45:48;99665.406250;;;0.540000;78.491211
77517;BME280;68414;53.946;27.634;2024-01-10T02:46:48;99667.304688;;;0.470000;78.877930
77517;BME280;68414;53.946;27.634;2024-01-10T02:47:48;99664.281250;;;0.430000;78.849609
77517;BME280;68414;53.946;27.634;2024-01-10T02:48:48;99671.031250;;;0.390000;79.566406
77517;BME280;68414;53.946;27.634;2024-01-10T02:49:48;99663.046875;;;0.460000;79.027344
77517;BME280;68414;53.946;27.634;2024-01-10T02:50:48;99664.750000;;;0.580000;79.223633
77517;BME280;68414;53.946;27.634;2024-01-10T02:51:48;99659.312500;;;0.530000;78.359375
77517;BME280;68414;53.946;27.634;2024-01-10T02:52:48;99650.875000;;;0.630000;79.416016
77517;BME280;68414;53.946;27.634;2024-01-10T02:53:48;99666.648438;;;0.510000;79.383789
77517;BME280;68414;53.946;27.634;2024-01-10T02:54:48;99661.148438;;;0.530000;79.808594
77517;BME280;68414;53.946;27.634;2024-01-10T02:55:48;99659.250000;;;0.600000;79.798828
77517;BME280;68414;53.946;27.634;2024-01-10T02:56:48;99658.218750;;;0.610000;79.012695
77517;BME280;68414;53.946;27.634;2024-01-10T02:57:48;99653.890625;;;0.660000;79.109375
77517;BME280;68414;53.946;27.634;2024-01-10T02:58:48;99650.726562;;;0.580000;79.244141
77517;BME280;68414;53.946;27.634;2024-01-10T02:59:48;99643.820312;;;0.570000;79.587891
77517;BME280;68414;53.946;27.634;2024-01-10T03:00:48;99653.953125;;;0.600000;80.068359
77517;BME280;68414;53.946;27.634;2024-01-10T03:01:48;99657.687500;;;0.710000;79.819336
77517;BME280;68414;53.946;27.634;2024-01-10T03:02:48;99650.562500;;;0.710000;79.572266
77517;BME280;68414;53.946;27.634;2024-01-10T03:03:48;99653.359375;;;0.760000;79.062500
77517;BME280;68414;53.946;27.634;2024-01-10T03:04:48;99649.609375;;;0.840000;79.250000
77517;BME280;68414;53.946;27.634;2024-01-10T03:05:48;99651.156250;;;0.910000;78.862305
77517;BME280;68414;53.946;27.634;2024-01-10T03:06:48;99653.578125;;;0.930000;78.302734
77517;BME280;68414;53.946;27.634;2024-01-10T03:07:48;99644.023438;;;0.920000;77.920898
77517;BME280;68414;53.946;27.634;2024-01-10T03:08:48;99646.296875;;;0.880000;78.706055
77517;BME280;68414;53.946;27.634;2024-01-10T03:09:48;99655.859375;;;0.890000;78.424805
77517;BME280;68414;53.946;27.634;2024-01-10T03:10:48;99647.625000;;;0.970000;78.505859
77517;BME280;68414;53.946;27.634;2024-01-10T03:11:48;99644.171875;;;0.970000;77.930664
77517;BME280;68414;53.946;27.634;2024-01-10T03:12:48;99643.359375;;;0.960000;78.331055
77517;BME280;68414;53.946;27.634;2024-01-10T03:13:51;99640.273438;;;0.990000;78.369141
77517;BME280;68414;53.946;27.634;2024-01-10T03:14:48;99649.531250;;;0.900000;77.507812
77517;BME280;68414;53.946;27.634;2024-01-10T03:15:48;99648.140625;;;0.880000;78.574219
77517;BME280;68414;53.946;27.634;2024-01-10T03:16:48;99645.781250;;;0.980000;78.950195
77517;BME280;68414;53.946;27.634;2024-01-10T03:17:48;99649.718750;;;1.070000;78.490234
77517;BME280;68414;53.946;27.634;2024-01-10T03:18:48;99650.890625;;;1.110000;78.250000
77517;BME280;68414;53.946;27.634;2024-01-10T03:19:48;99645.515625;;;1.180000;77.795898
77517;BME280;68414;53.946;27.634;2024-01-10T03:20:48;99657.281250;;;1.220000;78.126953
77517;BME280;68414;53.946;27.634;2024-01-10T03:21:48;99645.742188;;;1.160000;77.868164
77517;BME280;68414;53.946;27.634;2024-01-10T03:22:48;99648.468750;;;1.100000;78.137695
77517;BME280;68414;53.946;27.634;2024-01-10T03:23:48;99652.734375;;;1.110000;78.020508
77517;BME280;68414;53.946;27.634;2024-01-10T03:24:48;99644.789062;;;1.110000;78.053711
77517;BME280;68414;53.946;27.634;2024-01-10T03:25:48;99649.937500;;;1.060000;77.666016
77517;BME280;68414;53.946;27.634;2024-01-10T03:26:48;99651.335938;;;1.080000;78.234375
77517;BME280;68414;53.946;27.634;2024-01-10T03:27:48;99653.390625;;;1.060000;77.906250
77517;BME280;68414;53.946;27.634;2024-01-10T03:28:48;99646.156250;;;1.020000;78.935547
77517;BME280;68414;53.946;27.634;2024-01-10T03:29:48;99647.656250;;;1.090000;78.970703
77517;BME280;68414;53.946;27.634;2024-01-10T03:30:48;99651.031250;;;1.160000;78.561523
77517;BME280;68414;53.946;27.634;2024-01-10T03:31:48;99646.406250;;;1.120000;78.109375
77517;BME280;68414;53.946;27.634;2024-01-10T03:32:48;99646.406250;;;1.120000;78.671875
77517;BME280;68414;53.946;27.634;2024-01-10T03:33:48;99650.085938;;;1.110000;78.865234
77517;BME280;68414;53.946;27.634;2024-01-10T03:34:48;99644.343750;;;1.140000;78.644531
77517;BME280;68414;53.946;27.634;2024-01-10T03:35:48;99645.882812;;;1.210000;78.430664
77517;BME280;68414;53.946;27.634;2024-01-10T03:36:48;99648.671875;;;1.260000;78.384766
77517;BME280;68414;53.946;27.634;2024-01-10T03:37:48;99639.250000;;;1.300000;77.926758
77517;BME280;68414;53.946;27.634;2024-01-10T03:38:48;99642.343750;;;1.270000;77.370117
77517;BME280;68414;53.946;27.634;2024-01-10T03:39:48;99637.718750;;;1.230000;78.109375
77517;BME280;68414;53.946;27.634;2024-01-10T03:40:48;99635.437500;;;1.260000;78.308594
77517;BME280;68414;53.946;27.634;2024-01-10T03:41:48;99642.703125;;;1.310000;78.232422
77517;BME280;68414;53.946;27.634;2024-01-10T03:42:48;99629.382812;;;1.380000;78.233398
77517;BME280;68414;53.946;27.634;2024-01-10T03:43:48;99628.671875;;;1.420000;78.035156
77517;BME280;68414;53.946;27.634;2024-01-10T03:44:48;99637.789062;;;1.460000;77.901367
77517;BME280;68414;53.946;27.634;2024-01-10T03:45:48;99636.078125;;;1.520000;77.965820
77517;BME280;68414;53.946;27.634;2024-01-10T03:46:48;99646.312500;;;1.480000;77.440430
77517;BME280;68414;53.946;27.634;2024-01-10T03:47:48;99638.734375;;;1.520000;77.662109
77517;BME280;68414;53.946;27.634;2024-01-10T03:48:48;99639.539062;;;1.520000;77.598633
77517;BME280;68414;53.946;27.634;2024-01-10T03:49:48;99640.125000;;;1.540000;77.580078
77517;BME280;68414;53.946;27.634;2024-01-10T03:50:48;99649.093750;;;1.530000;77.274414
77517;BME280;68414;53.946;27.634;2024-01-10T03:51:49;99633.437500;;;1.520000;77.206055
77517;BME280;68414;53.946;27.634;2024-01-10T03:52:48;99643.890625;;;1.470000;77.869141
77517;BME280;68414;53.946;27.634;2024-01-10T03:53:48;99643.531250;;;1.430000;77.863281
77517;BME280;68414;53.946;27.634;2024-01-10T03:54:48;99635.359375;;;1.450000;78.092773
77517;BME280;68414;53.946;27.634;2024-01-10T03:55:48;99636.531250;;;1.490000;77.797852
77517;BME280;68414;53.946;27.634;2024-01-10T03:56:48;99637.343750;;;1.490000;77.808594
77517;BME280;68414;53.946;27.634;2024-01-10T03:57:48;99644.250000;;;1.500000;77.974609
77517;BME280;68414;53.946;27.634;2024-01-10T03:58:48;99637.343750;;;1.490000;77.646484
77517;BME280;68414;53.946;27.634;2024-01-10T03:59:48;99642.187500;;;1.520000;78.053711
77517;BME280;68414;53.946;27.634;2024-01-10T04:00:48;99640.210938;;;1.480000;77.969727
77517;BME280;68414;53.946;27.634;2024-01-10T04:01:48;99642.359375;;;1.390000;78.418945
77517;BME280;68414;53.946;27.634;2024-01-10T04:02:48;99638.132812;;;1.380000;78.169922
77517;BME280;68414;53.946;27.634;2024-01-10T04:03:48;99643.171875;;;1.400000;78.637695
77517;BME280;68414;53.946;27.634;2024-01-10T04:04:48;99638.015625;;;1.450000;78.537109
77517;BME280;68414;53.946;27.634;2024-01-10T04:05:48;99646.312500;;;1.480000;78.046875
77517;BME280;68414;53.946;27.634;2024-01-10T04:06:48;99649.320312;;;1.520000;78.193359
77517;BME280;68414;53.946;27.634;2024-01-10T04:07:48;99649.859375;;;1.420000;78.381836
77517;BME280;68414;53.946;27.634;2024-01-10T04:08:48;99653.093750;;;1.440000;78.461914
77517;BME280;68414;53.946;27.634;2024-01-10T04:09:48;99650.804688;;;1.480000;78.728516
77517;BME280;68414;53.946;27.634;2024-01-10T04:10:48;99651.250000;;;1.450000;78.537109
77517;BME280;68414;53.946;27.634;2024-01-10T04:11:48;99651.390625;;;1.500000;78.709961
77517;BME280;68414;53.946;27.634;2024-01-10T04:12:48;99650.718750;;;1.540000;78.577148
77517;BME280;68414;53.946;27.634;2024-01-10T04:13:48;99655.062500;;;1.490000;78.285156
77517;BME280;68414;53.946;27.634;2024-01-10T04:14:48;99645.867188;;;1.510000;78.637695
77517;BME280;68414;53.946;27.634;2024-01-10T04:15:48;99650.804688;;;1.480000;78.522461
77517;BME280;68414;53.946;27.634;2024-01-10T04:16:48;99652.062500;;;1.450000;78.679688
77517;BME280;68414;53.946;27.634;2024-01-10T04:17:48;99650.359375;;;1.510000;78.463867
77517;BME280;68414;53.946;27.634;2024-01-10T04:18:48;99647.703125;;;1.510000;78.659180
77517;BME280;68414;53.946;27.634;2024-01-10T04:19:48;99649.546875;;;1.500000;78.603516
77517;BME280;68414;53.946;27.634;2024-01-10T04:20:49;99641.515625;;;1.570000;78.712891
77517;BME280;68414;53.946;27.634;2024-01-10T04:21:48;99645.640625;;;1.530000;77.708984
77517;BME280;68414;53.946;27.634;2024-01-10T04:22:48;99649.320312;;;1.520000;78.431641
77517;BME280;68414;53.946;27.634;2024-01-10T04:23:48;99655.296875;;;1.470000;78.141602
77517;BME280;68414;53.946;27.634;2024-01-10T04:24:48;99644.031250;;;1.520000;78.897461
77517;BME280;68414;53.946;27.634;2024-01-10T04:25:48;99647.031250;;;1.550000;78.969727
77517;BME280;68414;53.946;27.634;2024-01-10T04:26:48;99651.656250;;;1.600000;78.826172
77517;BME280;68414;53.946;27.634;2024-01-10T04:27:48;99648.203125;;;1.590000;77.774414
77517;BME280;68414;53.946;27.634;2024-01-10T04:28:48;99652.687500;;;1.590000;77.914062
77517;BME280;68414;53.946;27.634;2024-01-10T04:29:48;99649.679688;;;1.550000;77.852539
77517;BME280;68414;53.946;27.634;2024-01-10T04:30:48;99651.070312;;;1.580000;78.367188
77517;BME280;68414;53.946;27.634;2024-01-10T04:31:48;99656.281250;;;1.640000;78.140625
77517;BME280;68414;53.946;27.634;2024-01-10T04:32:48;99653.765625;;;1.700000;78.367188
77517;BME280;68414;53.946;27.634;2024-01-10T04:33:48;99654.671875;;;1.750000;78.301758
77517;BME280;68414;53.946;27.634;2024-01-10T04:34:48;99657.218750;;;1.700000;78.076172